createdAt,value
2022-12-13T00:00:13.840Z,8.93
2022-12-13T00:02:43.482Z,7.83
2022-12-13T00:05:14.749Z,8.50
2022-12-13T00:07:43.959Z,8.33
2022-12-13T00:10:12.642Z,8.43
2022-12-13T00:12:41.500Z,8.20
2022-12-13T00:15:12.043Z,8.47
2022-12-13T00:17:41.011Z,8.23
2022-12-13T00:20:10.520Z,7.40
2022-12-13T00:22:40.539Z,7.60
2022-12-13T00:25:09.850Z,7.60
2022-12-13T00:27:38.610Z,7.90
2022-12-13T00:30:08.596Z,8.70
2022-12-13T00:32:37.276Z,8.23
2022-12-13T00:35:06.815Z,8.40
2022-12-13T00:37:35.509Z,7.90
2022-12-13T00:40:06.657Z,7.40
2022-12-13T00:42:36.564Z,7.33
2022-12-13T00:45:05.998Z,7.00
2022-12-13T00:47:34.755Z,6.73
2022-12-13T00:50:03.572Z,7.73
2022-12-13T00:52:32.293Z,6.97
2022-12-13T00:55:01.051Z,7.30
2022-12-13T00:57:31.307Z,8.23
2022-12-13T01:00:00.250Z,7.57
2022-12-13T01:02:28.877Z,7.53
2022-12-13T01:04:57.515Z,6.70
2022-12-13T01:07:26.184Z,7.57
2022-12-13T01:09:54.914Z,7.00
2022-12-13T01:12:23.463Z,7.43
2022-12-13T01:14:56.171Z,7.00
2022-12-13T01:17:25.656Z,7.23
2022-12-13T01:19:54.329Z,6.60
2022-12-13T01:22:22.974Z,7.17
2022-12-13T01:24:51.931Z,7.10
2022-12-13T01:27:21.105Z,7.00
2022-12-13T01:29:50.017Z,6.63
2022-12-13T01:32:20.131Z,6.97
2022-12-13T01:34:48.983Z,7.80
2022-12-13T01:37:18.175Z,7.30
2022-12-13T01:39:46.769Z,7.07
2022-12-13T01:42:16.492Z,6.57
2022-12-13T01:45:06.318Z,6.57
2022-12-13T01:47:43.795Z,6.20
2022-12-13T01:50:16.738Z,6.80
2022-12-13T01:52:47.792Z,6.80
2022-12-13T01:55:19.969Z,6.83
2022-12-13T01:57:52.420Z,7.03
2022-12-13T02:00:21.802Z,7.10
2022-12-13T02:02:52.363Z,7.30
2022-12-13T02:05:29.981Z,7.00
2022-12-13T02:08:02.522Z,6.87
2022-12-13T02:10:32.984Z,6.87
2022-12-13T02:13:01.618Z,6.83
2022-12-13T02:15:44.337Z,7.67
2022-12-13T02:18:42.431Z,7.50
2022-12-13T02:21:31.014Z,7.10
2022-12-13T02:24:37.333Z,7.33
2022-12-13T02:27:42.584Z,7.43
2022-12-13T02:30:28.185Z,7.77
2022-12-13T02:33:33.595Z,7.47
2022-12-13T02:36:12.774Z,7.83
2022-12-13T02:38:55.292Z,7.93
2022-12-13T02:41:37.421Z,7.33
2022-12-13T02:44:21.915Z,8.20
2022-12-13T02:46:58.198Z,8.63
2022-12-13T02:49:32.353Z,7.90
2022-12-13T02:52:02.890Z,7.43
2022-12-13T02:54:32.435Z,8.07
2022-12-13T02:57:02.182Z,8.93
2022-12-13T02:59:37.797Z,7.57
2022-12-13T03:02:21.608Z,7.50
2022-12-13T03:05:33.712Z,7.23
2022-12-13T03:08:21.866Z,8.57
2022-12-13T03:11:03.537Z,8.27
2022-12-13T03:13:39.254Z,8.43
2022-12-13T03:16:22.985Z,8.90
2022-12-13T03:18:55.148Z,7.73
2022-12-13T03:21:24.468Z,7.30
2022-12-13T03:23:53.379Z,7.97
2022-12-13T03:26:25.483Z,7.50
2022-12-13T03:28:54.632Z,6.97
2022-12-13T03:31:23.925Z,7.20
2022-12-13T03:33:54.017Z,8.10
2022-12-13T03:36:23.456Z,7.50
2022-12-13T03:39:02.388Z,7.50
2022-12-13T03:41:32.877Z,7.10
2022-12-13T03:44:05.572Z,7.83
2022-12-13T03:46:34.545Z,7.90
2022-12-13T03:49:05.115Z,8.13
2022-12-13T03:51:34.616Z,8.60
2022-12-13T03:54:03.309Z,7.90
2022-12-13T03:56:32.065Z,8.37
2022-12-13T03:59:00.729Z,8.37
2022-12-13T04:01:29.535Z,7.80
2022-12-13T04:03:58.328Z,8.23
2022-12-13T04:06:32.814Z,8.80
2022-12-13T04:09:02.455Z,7.53
2022-12-13T04:11:49.248Z,8.70
2022-12-13T04:14:21.984Z,8.40
2022-12-13T04:16:52.972Z,8.77
2022-12-13T04:19:24.625Z,8.40
2022-12-13T04:21:55.311Z,8.50
2022-12-13T04:24:31.396Z,8.47
2022-12-13T04:27:02.032Z,8.67
2022-12-13T04:29:34.062Z,8.57
2022-12-13T04:32:04.604Z,8.57
2022-12-13T04:34:37.637Z,8.13
2022-12-13T04:37:08.226Z,8.60
2022-12-13T04:39:37.169Z,9.57
2022-12-13T04:42:06.251Z,8.90
2022-12-13T04:44:37.019Z,8.80
2022-12-13T04:47:06.537Z,9.47
2022-12-13T04:49:36.202Z,23.70
2022-12-13T04:52:05.355Z,10.03
2022-12-13T04:54:37.021Z,8.87
2022-12-13T04:57:08.656Z,8.80
2022-12-13T04:59:38.985Z,10.00
2022-12-13T05:02:09.591Z,9.87
2022-12-13T05:04:38.259Z,10.33
2022-12-13T05:07:06.901Z,10.13
2022-12-13T05:09:37.766Z,10.97
2022-12-13T05:12:22.769Z,12.43
2022-12-13T05:14:52.535Z,14.27
2022-12-13T05:17:22.301Z,13.40
2022-12-13T05:19:50.918Z,12.83
2022-12-13T05:22:21.039Z,12.83
2022-12-13T05:24:51.537Z,12.13
2022-12-13T05:27:24.835Z,16.40
2022-12-13T05:30:04.449Z,16.63
2022-12-13T05:32:42.540Z,17.33
2022-12-13T05:35:21.866Z,15.97
2022-12-13T05:37:53.753Z,11.67
2022-12-13T05:40:24.818Z,9.83
2022-12-13T05:43:00.834Z,9.03
2022-12-13T05:45:31.075Z,9.40
2022-12-13T05:48:00.669Z,9.23
2022-12-13T05:50:29.483Z,9.03
2022-12-13T05:52:58.151Z,10.43
2022-12-13T05:55:28.228Z,10.53
2022-12-13T05:58:02.357Z,9.63
2022-12-13T06:00:31.815Z,10.23
2022-12-13T06:03:01.881Z,9.97
2022-12-13T06:05:31.190Z,9.10
2022-12-13T06:08:25.080Z,8.23
2022-12-13T06:11:10.821Z,8.27
2022-12-13T06:13:43.777Z,9.30
2022-12-13T06:16:21.831Z,8.30
2022-12-13T06:19:02.747Z,8.13
2022-12-13T06:21:43.981Z,9.50
2022-12-13T06:24:16.695Z,8.13
2022-12-13T06:26:47.539Z,8.00
2022-12-13T06:29:24.206Z,7.83
2022-12-13T06:32:14.378Z,7.70
2022-12-13T06:34:42.997Z,7.93
2022-12-13T06:37:14.825Z,8.73
2022-12-13T06:39:44.263Z,8.33
2022-12-13T06:42:22.155Z,8.23
2022-12-13T06:44:56.229Z,6.80
2022-12-13T06:47:31.325Z,7.70
2022-12-13T06:50:04.890Z,7.70
2022-12-13T06:52:35.110Z,7.47
2022-12-13T06:55:03.759Z,7.13
2022-12-13T06:57:35.522Z,8.30
2022-12-13T07:00:05.904Z,6.80
2022-12-13T07:02:34.996Z,6.83
2022-12-13T07:05:03.826Z,7.00
2022-12-13T07:07:32.622Z,7.07
2022-12-13T07:10:01.769Z,7.70
2022-12-13T07:12:30.573Z,7.23
2022-12-13T07:15:00.724Z,8.17
2022-12-13T07:17:34.204Z,7.47
2022-12-13T07:20:09.329Z,7.87
2022-12-13T07:22:45.213Z,8.40
2022-12-13T07:25:28.033Z,8.17
2022-12-13T07:28:01.226Z,8.20
2022-12-13T07:30:34.547Z,8.53
2022-12-13T07:33:10.636Z,8.57
2022-12-13T07:35:39.809Z,8.97
2022-12-13T07:38:10.249Z,9.13
2022-12-13T07:40:41.485Z,23.57
2022-12-13T07:43:12.068Z,11.27
2022-12-13T07:45:42.384Z,10.67
2022-12-13T07:48:11.115Z,9.00
2022-12-13T07:50:39.831Z,9.00
2022-12-13T07:53:10.147Z,10.03
2022-12-13T07:55:39.438Z,9.70
2022-12-13T07:58:10.802Z,9.57
2022-12-13T08:00:45.990Z,9.07
2022-12-13T08:03:24.998Z,8.30
2022-12-13T08:06:02.055Z,9.43
2022-12-13T08:08:31.910Z,10.65
2022-12-13T08:11:05.171Z,12.13
2022-12-13T08:13:34.291Z,13.23
2022-12-13T08:16:27.657Z,12.25
2022-12-13T08:19:02.850Z,13.73
2022-12-13T08:21:55.151Z,11.70
2022-12-13T08:24:25.491Z,11.25
2022-12-13T08:26:54.208Z,10.48
2022-12-13T08:29:33.377Z,10.90
2022-12-13T08:32:07.010Z,10.77
2022-12-13T08:34:35.893Z,12.30
2022-12-13T08:37:05.028Z,12.05
2022-12-13T08:39:36.460Z,12.65
2022-12-13T08:42:16.040Z,11.98
2022-12-13T08:44:47.067Z,11.98
2022-12-13T08:47:23.544Z,14.07
2022-12-13T08:50:02.530Z,12.10
2022-12-13T08:52:40.056Z,10.10
2022-12-13T08:55:10.854Z,9.48
2022-12-13T08:57:40.077Z,10.10
2022-12-13T09:00:12.839Z,7.20
2022-12-13T09:02:43.308Z,13.57
2022-12-13T09:05:13.267Z,13.23
2022-12-13T09:08:04.461Z,15.23
2022-12-13T09:10:59.677Z,21.20
2022-12-13T09:13:31.682Z,25.35
2022-12-13T09:16:05.624Z,29.15
2022-12-13T09:18:44.354Z,23.65
2022-12-13T09:21:22.024Z,22.70
2022-12-13T09:23:51.311Z,21.55
2022-12-13T09:26:25.263Z,17.85
2022-12-13T09:28:54.267Z,19.10
2022-12-13T09:31:23.460Z,15.32
2022-12-13T09:33:53.783Z,12.32
2022-12-13T09:36:23.096Z,14.30
2022-12-13T09:38:55.804Z,16.98
2022-12-13T09:41:31.819Z,18.80
2022-12-13T09:44:06.021Z,19.10
2022-12-13T09:46:44.697Z,17.33
2022-12-13T09:49:24.542Z,14.93
2022-12-13T09:52:10.818Z,12.95
2022-12-13T09:54:48.139Z,17.02
2022-12-13T09:57:32.963Z,15.40
2022-12-13T10:00:06.701Z,13.80
2022-12-13T10:02:44.575Z,13.32
2022-12-13T10:05:34.387Z,15.80
2022-12-13T10:08:14.338Z,16.88
2022-12-13T10:10:43.719Z,13.13
2022-12-13T10:13:21.238Z,12.32
2022-12-13T10:15:56.315Z,13.88
2022-12-13T10:18:35.690Z,10.00
2022-12-13T10:21:12.404Z,9.70
2022-12-13T10:24:15.613Z,10.25
2022-12-13T10:26:38.655Z,9.57
2022-12-13T10:29:09.682Z,10.68
2022-12-13T10:31:45.348Z,10.00
2022-12-13T10:34:25.361Z,10.77
2022-12-13T10:36:59.651Z,13.15
2022-12-13T10:39:41.859Z,12.85
2022-12-13T10:42:22.175Z,11.73
2022-12-13T10:45:15.687Z,12.15
2022-12-13T10:47:45.653Z,12.45
2022-12-13T10:50:27.674Z,13.70
2022-12-13T10:53:00.186Z,13.75
2022-12-13T10:55:33.596Z,13.55
2022-12-13T10:58:07.349Z,13.52
2022-12-13T11:00:41.707Z,12.20
2022-12-13T11:03:16.227Z,7.05
2022-12-13T11:06:18.134Z,5.60
2022-12-13T11:08:48.262Z,6.47
2022-12-13T11:11:38.157Z,5.15
2022-12-13T11:14:32.343Z,5.65
2022-12-13T11:17:09.403Z,6.50
2022-12-13T11:20:09.439Z,6.85
2022-12-13T11:22:39.974Z,6.70
2022-12-13T11:25:45.525Z,6.40
2022-12-13T11:28:45.322Z,6.10
2022-12-13T11:31:32.855Z,5.90
2022-12-13T11:34:50.135Z,7.05
2022-12-13T11:37:34.647Z,6.50
2022-12-13T11:40:14.014Z,5.97
2022-12-13T11:43:00.321Z,6.43
2022-12-13T11:45:36.382Z,5.60
2022-12-13T11:48:20.948Z,6.50
2022-12-13T11:50:55.857Z,6.18
2022-12-13T11:53:34.195Z,14.70
2022-12-13T11:56:16.514Z,5.93
2022-12-13T11:59:05.551Z,5.82
2022-12-13T12:01:44.966Z,7.78
2022-12-13T12:04:27.750Z,7.00
2022-12-13T12:07:24.322Z,8.00
2022-12-13T12:09:59.774Z,6.68
2022-12-13T12:12:34.881Z,7.75
2022-12-13T12:15:16.527Z,5.95
2022-12-13T12:17:45.752Z,5.97
2022-12-13T12:20:24.148Z,6.00
2022-12-13T12:23:08.686Z,5.97
2022-12-13T12:25:48.986Z,8.00
2022-12-13T12:28:35.402Z,9.63
2022-12-13T12:31:28.055Z,6.57
2022-12-13T12:34:13.319Z,7.73
2022-12-13T12:37:02.898Z,6.50
2022-12-13T12:39:47.697Z,6.37
2022-12-13T12:43:13.394Z,6.50
2022-12-13T12:45:56.346Z,6.40
2022-12-13T12:49:01.217Z,6.07
2022-12-13T12:51:44.284Z,5.83
2022-12-13T12:54:35.670Z,6.60
2022-12-13T12:57:14.320Z,6.57
2022-12-13T13:00:01.854Z,5.70
2022-12-13T13:02:41.076Z,8.00
2022-12-13T13:05:23.224Z,7.83
2022-12-13T13:07:56.589Z,7.03
2022-12-13T13:10:27.524Z,9.23
2022-12-13T13:13:01.869Z,14.87
2022-12-13T13:15:58.852Z,8.43
2022-12-13T13:18:52.325Z,6.57
2022-12-13T13:21:44.075Z,6.03
2022-12-13T13:24:26.158Z,5.20
2022-12-13T13:26:58.154Z,5.57
2022-12-13T13:29:43.321Z,5.57
2022-12-13T13:32:31.880Z,5.50
2022-12-13T13:35:53.804Z,6.53
2022-12-13T13:39:01.243Z,5.60
2022-12-13T13:42:10.311Z,5.93
2022-12-13T13:45:04.347Z,5.40
2022-12-13T13:47:43.181Z,5.50
2022-12-13T13:51:21.215Z,5.33
2022-12-13T13:54:50.197Z,7.60
2022-12-13T13:58:11.086Z,5.30
2022-12-13T14:01:45.798Z,6.30
2022-12-13T14:05:18.409Z,5.80
2022-12-13T14:08:20.972Z,6.60
2022-12-13T14:11:16.326Z,12.80
2022-12-13T14:14:50.033Z,9.63
2022-12-13T14:18:14.514Z,5.87
2022-12-13T14:21:11.397Z,5.60
2022-12-13T14:23:56.622Z,6.67
2022-12-13T14:26:44.999Z,8.40
2022-12-13T14:29:34.227Z,7.90
2022-12-13T14:32:03.424Z,8.20
2022-12-13T14:34:35.696Z,9.43
2022-12-13T14:37:06.765Z,8.93
2022-12-13T14:39:36.341Z,9.93
2022-12-13T14:42:25.969Z,10.83
2022-12-13T14:44:55.613Z,11.33
2022-12-13T14:47:24.572Z,10.87
2022-12-13T14:49:57.807Z,11.03
2022-12-13T14:52:29.756Z,7.60
2022-12-13T14:55:01.293Z,10.37
2022-12-13T14:57:33.926Z,11.63
2022-12-13T15:00:23.451Z,9.33
2022-12-13T15:02:55.144Z,7.50
2022-12-13T15:05:31.355Z,7.50
2022-12-13T15:08:10.602Z,8.00
2022-12-13T15:10:48.498Z,8.23
2022-12-13T15:13:30.798Z,8.97
2022-12-13T15:16:10.854Z,9.37
2022-12-13T15:18:40.354Z,8.30
2022-12-13T15:21:24.270Z,8.50
2022-12-13T15:23:54.992Z,13.40
2022-12-13T15:26:29.442Z,10.50
2022-12-13T15:29:10.002Z,10.87
2022-12-13T15:31:40.570Z,11.43
2022-12-13T15:34:35.906Z,11.10
2022-12-13T15:37:07.790Z,12.00
2022-12-13T15:40:01.040Z,12.93
2022-12-13T15:42:34.807Z,18.07
2022-12-13T15:45:18.610Z,17.90
2022-12-13T15:47:48.268Z,17.53
2022-12-13T15:50:35.171Z,16.17
2022-12-13T15:53:06.841Z,15.60
2022-12-13T15:55:37.952Z,16.57
2022-12-13T15:58:31.230Z,14.67
2022-12-13T16:01:05.790Z,12.17
2022-12-13T16:03:44.587Z,11.27
2022-12-13T16:06:22.173Z,10.60
2022-12-13T16:08:53.812Z,11.97
2022-12-13T16:11:31.356Z,12.97
2022-12-13T16:14:29.539Z,11.10
2022-12-13T16:17:08.313Z,11.47
2022-12-13T16:19:39.944Z,11.73
2022-12-13T16:22:09.277Z,12.13
2022-12-13T16:24:38.390Z,11.43
2022-12-13T16:27:08.894Z,11.00
2022-12-13T16:29:38.549Z,10.97
2022-12-13T16:32:10.716Z,10.33
2022-12-13T16:34:39.907Z,10.40
2022-12-13T16:37:26.804Z,11.40
2022-12-13T16:39:56.466Z,10.93
2022-12-13T16:42:27.489Z,11.03
2022-12-13T16:45:18.111Z,10.57
2022-12-13T16:47:50.711Z,12.20
2022-12-13T16:50:22.086Z,11.30
2022-12-13T16:52:51.030Z,11.70
2022-12-13T16:55:19.765Z,11.67
2022-12-13T16:57:59.019Z,12.00
2022-12-13T17:00:28.947Z,11.63
2022-12-13T17:03:00.853Z,10.17
2022-12-13T17:05:31.198Z,11.53
2022-12-13T17:07:59.920Z,10.90
2022-12-13T17:10:29.242Z,11.03
2022-12-13T17:12:57.955Z,11.47
2022-12-13T17:15:26.660Z,11.53
2022-12-13T17:17:55.604Z,10.77
2022-12-13T17:20:27.040Z,11.53
2022-12-13T17:22:56.774Z,11.70
2022-12-13T17:25:25.533Z,11.87
2022-12-13T17:27:54.404Z,11.83
2022-12-13T17:30:24.044Z,12.20
2022-12-13T17:32:52.664Z,11.90
2022-12-13T17:35:21.307Z,13.00
2022-12-13T17:37:51.526Z,12.63
2022-12-13T17:40:20.668Z,14.00
2022-12-13T17:42:51.110Z,13.17
2022-12-13T17:45:20.725Z,13.03
2022-12-13T17:47:49.707Z,12.47
2022-12-13T17:50:18.820Z,13.93
2022-12-13T17:52:47.471Z,13.13
2022-12-13T17:55:18.500Z,14.97
2022-12-13T17:57:47.458Z,13.60
2022-12-13T18:00:17.664Z,13.50
2022-12-13T18:02:55.439Z,13.07
2022-12-13T18:05:26.403Z,12.43
2022-12-13T18:07:55.343Z,18.03
2022-12-13T18:10:29.757Z,14.37
2022-12-13T18:12:59.311Z,13.33
2022-12-13T18:15:28.121Z,13.70
2022-12-13T18:18:11.410Z,14.20
2022-12-13T18:20:40.542Z,13.03
2022-12-13T18:23:09.414Z,12.60
2022-12-13T18:25:40.684Z,12.40
2022-12-13T18:28:10.488Z,12.83
2022-12-13T18:30:39.827Z,13.17
2022-12-13T18:33:08.605Z,13.27
2022-12-13T18:35:37.401Z,12.37
2022-12-13T18:38:06.308Z,13.30
2022-12-13T18:40:34.987Z,13.27
2022-12-13T18:43:05.164Z,13.13
2022-12-13T18:45:34.000Z,13.87
2022-12-13T18:48:02.644Z,14.43
2022-12-13T18:50:31.438Z,13.63
2022-12-13T18:53:00.418Z,13.07
2022-12-13T18:55:29.743Z,13.63
2022-12-13T18:57:58.464Z,12.77
2022-12-13T19:00:28.490Z,13.20
2022-12-13T19:02:57.534Z,13.87
2022-12-13T19:05:26.374Z,14.97
2022-12-13T19:07:55.177Z,14.37
2022-12-13T19:10:24.421Z,14.27
2022-12-13T19:12:54.212Z,14.60
2022-12-13T19:15:22.928Z,14.77
2022-12-13T19:17:53.717Z,15.07
2022-12-13T19:20:22.475Z,14.97
2022-12-13T19:22:51.233Z,13.50
2022-12-13T19:25:20.663Z,16.37
2022-12-13T19:27:49.374Z,15.00
2022-12-13T19:30:23.240Z,14.97
2022-12-13T19:32:53.357Z,13.23
2022-12-13T19:35:22.087Z,13.97
2022-12-13T19:37:50.887Z,14.97
2022-12-13T19:40:20.072Z,13.53
2022-12-13T19:42:48.792Z,13.87
2022-12-13T19:45:17.823Z,13.73
2022-12-13T19:47:46.801Z,14.27
2022-12-13T19:50:19.765Z,13.80
2022-12-13T19:52:49.103Z,13.87
2022-12-13T19:55:18.342Z,14.50
2022-12-13T19:57:47.480Z,14.40
2022-12-13T20:00:17.665Z,14.60
2022-12-13T20:02:46.698Z,14.37
2022-12-13T20:05:15.451Z,15.53
2022-12-13T20:07:45.891Z,15.43
2022-12-13T20:10:17.317Z,16.63
2022-12-13T20:12:46.249Z,15.50
2022-12-13T20:15:15.231Z,14.97
2022-12-13T20:17:44.087Z,15.83
2022-12-13T20:20:13.788Z,14.43
2022-12-13T20:22:42.620Z,14.43
2022-12-13T20:25:13.759Z,15.07
2022-12-13T20:27:44.292Z,14.63
2022-12-13T20:30:14.426Z,15.13
2022-12-13T20:32:43.112Z,15.63
2022-12-13T20:35:12.091Z,15.20
2022-12-13T20:37:41.638Z,15.70
2022-12-13T20:40:13.915Z,15.87
2022-12-13T20:42:42.626Z,15.63
2022-12-13T20:45:13.018Z,16.47
2022-12-13T20:47:42.359Z,16.07
2022-12-13T20:50:11.894Z,15.53
2022-12-13T20:52:40.757Z,15.07
2022-12-13T20:55:10.993Z,16.83
2022-12-13T20:57:41.124Z,15.77
2022-12-13T21:00:11.716Z,17.07
2022-12-13T21:02:40.450Z,16.23
2022-12-13T21:05:10.227Z,16.17
2022-12-13T21:07:56.928Z,16.70
2022-12-13T21:10:25.829Z,16.13
2022-12-13T21:12:56.066Z,16.53
2022-12-13T21:15:25.111Z,15.23
2022-12-13T21:17:53.836Z,15.90
2022-12-13T21:20:23.089Z,15.67
2022-12-13T21:22:52.196Z,15.90
2022-12-13T21:25:20.980Z,15.70
2022-12-13T21:27:49.716Z,16.43
2022-12-13T21:30:20.039Z,16.40
2022-12-13T21:32:52.815Z,16.50
2022-12-13T21:35:22.014Z,15.33
2022-12-13T21:37:50.723Z,15.83
2022-12-13T21:40:19.669Z,18.50
2022-12-13T21:42:48.384Z,16.97
2022-12-13T21:45:18.613Z,16.10
2022-12-13T21:47:47.774Z,15.97
2022-12-13T21:50:16.759Z,16.37
2022-12-13T21:52:49.633Z,16.33
2022-12-13T21:58:26.727Z,16.47
2022-12-13T22:00:57.328Z,16.47
2022-12-13T22:03:26.133Z,16.50
2022-12-13T22:05:55.016Z,16.80
2022-12-13T22:08:23.920Z,17.80
2022-12-13T22:11:10.163Z,16.93
2022-12-13T22:13:38.821Z,17.43
2022-12-13T22:16:10.689Z,17.27
2022-12-13T22:18:40.042Z,18.50
2022-12-13T22:21:08.738Z,18.00
2022-12-13T22:23:37.420Z,16.73
2022-12-13T22:26:08.418Z,16.57
2022-12-13T22:28:37.065Z,16.87
2022-12-13T22:31:06.207Z,17.50
2022-12-13T22:33:36.325Z,16.77
2022-12-13T22:36:05.788Z,16.77
2022-12-13T22:38:34.404Z,18.00
2022-12-13T22:41:03.595Z,17.67
2022-12-13T22:43:36.159Z,17.00
2022-12-13T22:46:06.299Z,17.03
2022-12-13T22:48:36.975Z,18.07
2022-12-13T22:51:06.289Z,17.70
2022-12-13T22:53:35.687Z,18.60
2022-12-13T22:56:10.252Z,17.93
2022-12-13T23:16:10.238Z,18.20
2022-12-13T23:18:38.966Z,20.03
2022-12-13T23:21:07.541Z,21.87
2022-12-13T23:23:36.145Z,18.63
2022-12-13T23:26:11.457Z,18.87
2022-12-13T23:28:41.777Z,18.43
2022-12-13T23:31:13.640Z,17.47
2022-12-13T23:33:43.295Z,17.67
2022-12-13T23:36:15.721Z,16.27
2022-12-13T23:38:44.808Z,18.23
2022-12-13T23:41:20.339Z,16.47
2022-12-13T23:43:54.929Z,17.30
2022-12-13T23:46:28.023Z,17.70
2022-12-13T23:48:57.148Z,18.30
2022-12-13T23:51:26.519Z,16.80
2022-12-13T23:53:55.478Z,17.00
2022-12-13T23:56:25.307Z,16.80
2022-12-13T23:58:53.988Z,18.33
